Keauhou, HI (96739)

3:54 AM HST on August 28, 2015 (GMT -1000)
Pualani Estates | | Change Station
CLOSE
Current Station
Personal Weather Station
Location: Kailua-Kona, HI
Elevation: 420 ft
Nearby Weather Stations
Active Advisory: High Surf Advisory Active Notice: Record Report

Elev 420 ft 19.62 °N, 155.97 °W | Updated 5 seconds ago

Clear
Clear
75.9 °F
Feels Like 76 °F
N
1.1
Wind Variable Wind from SW
Gusts 2.5 mph

Today
High -- | Low -- °F
--% Chance of Precip.
Yesterday
High -- | Low -- °F
Precip. -- in
6:07 AM 6:42 PM
Waxing Gibbous, 98% visible
Pressure 29.85 in
Visibility 10.0 miles
Clouds Clear
Heat Index 76 °F
Dew Point 73 °F
Humidity 92%
Rainfall 0.00 in
Snow Depth Not available.
UV 0.0 out of 12
Pollen Not available.
Air Quality Not available.
Flu Activity Not available.
METAR PHKO 281253Z AUTO 00000KT 10SM CLR 27/23 A2984 RMK AO2 SLP107 T02720233 TSNO
Pressure 29.85 in
Visibility 10.0 miles
Clouds Clear
Heat Index 76 °F
Dew Point 73 °F
Humidity 92%
Rainfall 0.00 in
Snow Depth Not available.
UV 0.0 out of 12
Pollen Not available.
Air Quality Not available.
Flu Activity Not available.
METAR PHKO 281253Z AUTO 00000KT 10SM CLR 27/23 A2984 RMK AO2 SLP107 T02720233 TSNO

10-Day Weather Forecast

×

Almanac

Astronomy

Aug. 28, 2015 Rise Set
Actual Time
Civil Twilight
Nautical Twilight
Astronomical Twilight
Moon
Length of Visible Light
Length of Day
Tomorrow will be .
, % of the Moon is Illuminated

Today's Extremes

State Highs State Lows

Community

WunderPhotos

Upload Photos

1,850,377 photos uploaded!

WunderBlogs® & News

Nearby

Air Quality

  Air Quality AQ Index Pollutant
Not available.

Snow Depth

Station Depth Elevation

Earthquake Activity

City Distance Mag. Time & Date
Minimum magnitude displayed is 2.5.

Coastal Water Temperatures

Place Temperature

Stations

Nearby Weather Stations

Station Location Temp. Windchill Dew Point Humidity Wind Precip. Elev Updated Type
                   
High Surf Advisory
Statement as of 3:17 AM HST on August 28, 2015

... High surf advisory in effect from 6 am this morning to 6 PM
HST Saturday...

The National Weather Service in Honolulu has issued a high surf
advisory... which is in effect from 6 am this morning to 6 PM HST
Saturday.


* Surf... along west facing shores... 5 to 8 feet.

* Timing... through Saturday.

* Impacts... moderate... expect strong breaking waves... shore
break... and strong longshore and rip currents making swimming
difficult and dangerous.


Precautionary/preparedness actions...

Beachgoers... swimmers... and surfers should heed all advice given
by ocean safety officials and exercise caution. Know your limits...
when in doubt... do not go out.


Wroe